createdAt,value
2022-10-10T00:01:38.486Z,100489.78
2022-10-10T00:04:06.867Z,100479.50
2022-10-10T00:06:35.081Z,100486.72
2022-10-10T00:09:04.044Z,100481.13
2022-10-10T00:11:32.492Z,100486.19
2022-10-10T00:14:00.436Z,100481.13
2022-10-10T00:16:28.368Z,100480.69
2022-10-10T00:18:56.647Z,100479.94
2022-10-10T00:21:24.510Z,100486.59
2022-10-10T00:23:53.005Z,100482.47
2022-10-10T00:26:21.390Z,100483.47
2022-10-10T00:28:52.301Z,100483.78
2022-10-10T00:31:20.142Z,100498.25
2022-10-10T00:33:48.831Z,100498.25
2022-10-10T00:36:16.946Z,100487.28
2022-10-10T00:38:44.797Z,100490.47
2022-10-10T00:41:13.469Z,100498.41
2022-10-10T00:43:41.403Z,100503.12
2022-10-10T00:46:09.366Z,100505.09
2022-10-10T00:48:43.243Z,100505.75
2022-10-10T00:51:16.859Z,100519.88
2022-10-10T00:53:55.841Z,100516.62
2022-10-10T00:56:30.156Z,100521.94
2022-10-10T00:59:02.993Z,100524.66
2022-10-10T01:01:34.101Z,100530.84
2022-10-10T01:04:03.001Z,100536.28
2022-10-10T01:06:31.262Z,100529.38
2022-10-10T01:09:00.160Z,100521.59
2022-10-10T01:11:40.603Z,100537.03
2022-10-10T01:14:14.655Z,100538.53
2022-10-10T01:17:07.629Z,100541.50
2022-10-10T01:19:53.653Z,100548.00
2022-10-10T01:22:41.345Z,100546.97
2022-10-10T01:25:33.741Z,100552.56
2022-10-10T01:28:11.222Z,100556.03
2022-10-10T01:30:41.864Z,100556.38
2022-10-10T01:33:37.891Z,100564.19
2022-10-10T01:36:30.655Z,100572.03
2022-10-10T01:39:06.665Z,100576.97
2022-10-10T01:41:44.310Z,100568.44
2022-10-10T01:44:12.547Z,100579.94
2022-10-10T01:46:40.385Z,100584.44
2022-10-10T01:49:08.737Z,100576.66
2022-10-10T01:52:05.261Z,100595.94
2022-10-10T01:55:08.791Z,100594.00
2022-10-10T01:57:50.536Z,100609.13
2022-10-10T02:00:19.781Z,100607.47
2022-10-10T02:03:05.088Z,100603.22
2022-10-10T02:05:54.590Z,100607.47
2022-10-10T02:09:05.602Z,100615.22
2022-10-10T02:11:39.787Z,100606.19
2022-10-10T02:14:15.491Z,100606.59
2022-10-10T02:16:50.442Z,100624.81
2022-10-10T02:19:20.472Z,100632.31
2022-10-10T02:21:51.277Z,100624.38
2022-10-10T02:24:21.901Z,100644.09
2022-10-10T02:27:08.576Z,100648.66
2022-10-10T02:29:39.550Z,100648.94
2022-10-10T02:32:24.751Z,100640.47
2022-10-10T02:34:58.499Z,100650.19
2022-10-10T02:37:31.116Z,100653.84
2022-10-10T02:40:03.245Z,100653.16
2022-10-10T02:42:32.040Z,100656.53
2022-10-10T02:45:00.544Z,100659.44
2022-10-10T02:47:28.519Z,100657.56
2022-10-10T02:49:56.903Z,100653.34
2022-10-10T02:52:25.014Z,100656.91
2022-10-10T02:54:53.004Z,100652.88
2022-10-10T02:57:24.742Z,100656.31
2022-10-10T02:59:52.696Z,100651.16
2022-10-10T03:02:20.685Z,100660.13
2022-10-10T03:04:48.950Z,100652.34
2022-10-10T03:07:19.723Z,100649.91
2022-10-10T03:09:47.667Z,100657.34
2022-10-10T03:12:16.325Z,100662.75
2022-10-10T03:14:44.595Z,100661.97
2022-10-10T03:17:12.550Z,100674.16
2022-10-10T03:19:40.854Z,100670.59
2022-10-10T03:22:11.946Z,100671.63
2022-10-10T03:24:40.038Z,100682.25
2022-10-10T03:27:07.887Z,100680.56
2022-10-10T03:29:36.328Z,100686.56
2022-10-10T03:32:06.904Z,100690.03
2022-10-10T03:34:38.771Z,100695.19
2022-10-10T03:37:07.364Z,100699.25
2022-10-10T03:39:35.199Z,100694.16
2022-10-10T03:42:03.146Z,100689.25
2022-10-10T03:44:31.370Z,100700.34
2022-10-10T03:46:59.244Z,100700.34
2022-10-10T03:49:27.024Z,100695.94
2022-10-10T03:51:55.346Z,100708.41
2022-10-10T03:54:23.209Z,100707.31
2022-10-10T03:56:51.120Z,100710.06
2022-10-10T03:59:19.394Z,100710.38
2022-10-10T04:01:47.203Z,100698.81
2022-10-10T04:04:15.821Z,100717.91
2022-10-10T04:06:43.749Z,100721.44
2022-10-10T04:09:11.677Z,100723.47
2022-10-10T04:11:41.173Z,100734.78
2022-10-10T04:14:09.075Z,100741.47
2022-10-10T04:16:39.860Z,100729.88
2022-10-10T04:19:08.112Z,100741.19
2022-10-10T04:21:36.067Z,100739.50
2022-10-10T04:24:03.839Z,100740.16
2022-10-10T04:26:32.027Z,100747.38
2022-10-10T04:29:00.031Z,100749.66
2022-10-10T04:31:28.243Z,100756.63
2022-10-10T04:33:56.381Z,100759.25
2022-10-10T04:36:24.280Z,100754.00
2022-10-10T04:38:52.207Z,100769.81
2022-10-10T04:41:20.608Z,100760.97
2022-10-10T04:43:48.379Z,100769.94
2022-10-10T04:46:16.263Z,100768.63
2022-10-10T04:48:47.420Z,100770.34
2022-10-10T04:51:15.288Z,100767.03
2022-10-10T04:53:50.283Z,100777.03
2022-10-10T04:56:18.721Z,100785.63
2022-10-10T04:58:46.355Z,100781.22
2022-10-10T05:01:17.620Z,100798.28
2022-10-10T05:03:46.001Z,100796.87
2022-10-10T05:06:13.976Z,100807.00
2022-10-10T05:08:41.827Z,100813.34
2022-10-10T05:11:10.005Z,100821.00
2022-10-10T05:13:37.726Z,100814.50
2022-10-10T05:16:05.662Z,100812.31
2022-10-10T05:18:39.615Z,100812.06
2022-10-10T05:21:07.824Z,100806.09
2022-10-10T05:23:36.454Z,100810.13
2022-10-10T05:26:05.481Z,100809.28
2022-10-10T05:28:35.543Z,100813.34
2022-10-10T05:31:05.287Z,100824.31
2022-10-10T05:33:34.337Z,100824.25
2022-10-10T05:36:07.235Z,100838.00
2022-10-10T05:38:35.601Z,100833.19
2022-10-10T05:41:03.849Z,100832.75
2022-10-10T05:43:31.791Z,100830.97
2022-10-10T05:46:03.444Z,100842.22
2022-10-10T05:48:31.835Z,100851.59
2022-10-10T05:51:01.837Z,100840.53
2022-10-10T05:53:31.081Z,100834.28
2022-10-10T05:56:02.495Z,100841.56
2022-10-10T05:58:33.458Z,100841.06
2022-10-10T06:01:06.570Z,100839.53
2022-10-10T06:03:35.849Z,100848.97
2022-10-10T06:06:04.369Z,100848.00
2022-10-10T06:08:32.697Z,100840.91
2022-10-10T06:11:09.426Z,100857.97
2022-10-10T06:13:38.147Z,100868.78
2022-10-10T06:16:06.467Z,100870.72
2022-10-10T06:18:37.614Z,100876.03
2022-10-10T06:21:07.852Z,100878.97
2022-10-10T06:23:39.597Z,100878.00
2022-10-10T06:26:07.549Z,100884.97
2022-10-10T06:28:35.955Z,100889.41
2022-10-10T06:31:07.319Z,100886.38
2022-10-10T06:33:37.486Z,100883.97
2022-10-10T06:36:07.905Z,100884.87
2022-10-10T06:38:40.157Z,100884.87
2022-10-10T06:41:09.527Z,100893.38
2022-10-10T06:43:41.705Z,100891.78
2022-10-10T06:46:11.085Z,100891.16
2022-10-10T06:48:39.015Z,100888.22
2022-10-10T06:51:09.608Z,100890.25
2022-10-10T06:53:41.050Z,100886.12
2022-10-10T06:56:11.199Z,100897.94
2022-10-10T06:58:39.516Z,100895.88
2022-10-10T07:01:07.403Z,100896.78
2022-10-10T07:03:35.607Z,100912.53
2022-10-10T07:06:04.244Z,100903.06
2022-10-10T07:08:32.000Z,100912.25
2022-10-10T07:11:03.032Z,100902.09
2022-10-10T07:13:31.475Z,100906.03
2022-10-10T07:15:59.576Z,100906.06
2022-10-10T07:18:27.998Z,100902.19
2022-10-10T07:20:57.980Z,100913.00
2022-10-10T07:23:26.977Z,100908.78
2022-10-10T07:26:07.208Z,100915.63
2022-10-10T07:28:35.690Z,100922.78
2022-10-10T07:31:06.050Z,100923.12
2022-10-10T07:33:40.173Z,100915.75
2022-10-10T07:36:11.656Z,100915.34
2022-10-10T07:38:39.820Z,100915.63
2022-10-10T07:41:10.461Z,100923.75
2022-10-10T07:43:38.992Z,100920.06
2022-10-10T07:46:11.347Z,100928.56
2022-10-10T07:48:40.949Z,100924.72
2022-10-10T07:51:09.337Z,100918.06
2022-10-10T07:53:37.150Z,100925.09
2022-10-10T07:56:08.133Z,100932.91
2022-10-10T07:58:36.730Z,100931.50
2022-10-10T08:01:14.599Z,100931.19
2022-10-10T08:03:42.838Z,100921.50
2022-10-10T08:06:13.532Z,100920.50
2022-10-10T08:08:50.761Z,100920.31
2022-10-10T08:11:21.674Z,100912.88
2022-10-10T08:13:50.194Z,100922.72
2022-10-10T08:16:18.541Z,100929.47
2022-10-10T08:18:47.100Z,100923.38
2022-10-10T08:21:18.026Z,100923.59
2022-10-10T08:23:46.741Z,100918.72
2022-10-10T08:26:16.325Z,100913.81
2022-10-10T08:28:45.656Z,100917.66
2022-10-10T08:31:16.476Z,100913.94
2022-10-10T08:33:48.405Z,100917.34
2022-10-10T08:36:23.108Z,100920.91
2022-10-10T08:38:52.968Z,100918.63
2022-10-10T08:41:37.143Z,100923.31
2022-10-10T08:44:28.415Z,100932.19
2022-10-10T08:47:21.437Z,100937.03
2022-10-10T08:50:02.214Z,100931.63
2022-10-10T08:52:55.381Z,100928.28
2022-10-10T08:55:36.001Z,100939.91
2022-10-10T08:58:24.108Z,100932.63
2022-10-10T09:01:12.301Z,100928.22
2022-10-10T09:03:40.578Z,100936.94
2022-10-10T09:06:42.665Z,100934.19
2022-10-10T09:09:23.487Z,100937.06
2022-10-10T09:12:09.857Z,100931.22
2022-10-10T09:14:40.303Z,100931.06
2022-10-10T09:17:26.381Z,100922.16
2022-10-10T09:20:07.116Z,100929.69
2022-10-10T09:23:10.382Z,100902.28
2022-10-10T09:25:40.568Z,100927.75
2022-10-10T09:28:40.147Z,100924.81
2022-10-10T09:31:18.015Z,100927.03
2022-10-10T09:34:01.016Z,100932.31
2022-10-10T09:36:34.530Z,100930.41
2022-10-10T09:39:33.585Z,100925.22
2022-10-10T09:42:05.836Z,100930.34
2022-10-10T09:44:36.585Z,100930.28
2022-10-10T09:47:04.963Z,100923.62
2022-10-10T09:49:35.250Z,100930.06
2022-10-10T09:52:18.422Z,100920.59
2022-10-10T09:54:49.611Z,100916.69
2022-10-10T09:57:23.513Z,100929.81
2022-10-10T09:59:51.720Z,100918.78
2022-10-10T10:02:29.704Z,100924.94
2022-10-10T10:04:57.801Z,100923.59
2022-10-10T10:07:36.695Z,100918.06
2022-10-10T10:10:27.497Z,100921.06
2022-10-10T10:12:56.109Z,100924.75
2022-10-10T10:15:30.337Z,100925.63
2022-10-10T10:18:24.936Z,100930.50
2022-10-10T10:21:03.455Z,100914.22
2022-10-10T10:23:36.832Z,100917.69
2022-10-10T10:26:15.806Z,100916.84
2022-10-10T10:28:44.274Z,100910.84
2022-10-10T10:31:50.365Z,100908.50
2022-10-10T10:34:43.210Z,100918.75
2022-10-10T10:37:15.175Z,100920.22
2022-10-10T10:40:04.779Z,100912.06
2022-10-10T10:42:32.905Z,100914.44
2022-10-10T10:45:13.266Z,100917.31
2022-10-10T10:47:57.846Z,100916.47
2022-10-10T10:50:48.923Z,100912.31
2022-10-10T10:53:39.026Z,100907.69
2022-10-10T10:56:44.118Z,100910.59
2022-10-10T11:00:22.051Z,100920.31
2022-10-10T11:03:09.798Z,100914.59
2022-10-10T11:06:04.094Z,100913.19
2022-10-10T11:08:44.479Z,100916.13
2022-10-10T11:11:23.490Z,100912.00
2022-10-10T11:14:15.294Z,100921.59
2022-10-10T11:17:04.176Z,100918.72
2022-10-10T11:20:04.923Z,100914.75
2022-10-10T11:22:46.209Z,100915.81
2022-10-10T11:25:26.985Z,100922.56
2022-10-10T11:28:11.351Z,100911.34
2022-10-10T11:30:50.071Z,100914.50
2022-10-10T11:33:46.082Z,100924.87
2022-10-10T11:36:20.542Z,100909.03
2022-10-10T11:39:04.807Z,100915.97
2022-10-10T11:41:47.180Z,100918.06
2022-10-10T11:44:23.376Z,100919.19
2022-10-10T11:47:00.965Z,100920.88
2022-10-10T11:49:57.457Z,100921.25
2022-10-10T11:52:39.935Z,100915.41
2022-10-10T11:55:33.443Z,100918.00
2022-10-10T11:58:07.335Z,100913.44
2022-10-10T12:00:45.233Z,100922.88
2022-10-10T12:03:16.620Z,100914.50
2022-10-10T12:05:58.538Z,100916.44
2022-10-10T12:08:37.911Z,100917.59
2022-10-10T12:11:25.858Z,100910.06
2022-10-10T12:13:57.437Z,100905.81
2022-10-10T12:16:31.520Z,100918.37
2022-10-10T12:19:21.724Z,100910.25
2022-10-10T12:22:00.843Z,100908.53
2022-10-10T12:24:58.778Z,100915.75
2022-10-10T12:27:43.235Z,100905.97
2022-10-10T12:30:22.748Z,100912.63
2022-10-10T12:32:53.289Z,100913.91
2022-10-10T12:35:31.344Z,100897.56
2022-10-10T12:38:16.137Z,100919.84
2022-10-10T12:41:04.787Z,100912.69
2022-10-10T12:43:39.050Z,100914.91
2022-10-10T12:46:26.784Z,100905.28
2022-10-10T12:49:05.027Z,100912.81
2022-10-10T12:51:36.365Z,100911.47
2022-10-10T12:54:06.734Z,100918.25
2022-10-10T12:56:39.177Z,100902.19
2022-10-10T12:59:22.624Z,100905.28
2022-10-10T13:01:55.899Z,100921.41
2022-10-10T13:04:24.399Z,100915.34
2022-10-10T13:06:57.026Z,100918.22
2022-10-10T13:09:32.464Z,100913.44
2022-10-10T13:12:07.937Z,100913.25
2022-10-10T13:14:44.978Z,100913.31
2022-10-10T13:17:32.091Z,100913.88
2022-10-10T13:20:06.044Z,100923.38
2022-10-10T13:22:37.025Z,100922.81
2022-10-10T13:25:10.448Z,100917.59
2022-10-10T13:27:43.590Z,100913.50
2022-10-10T13:30:18.706Z,100925.59
2022-10-10T13:32:47.057Z,100924.22
2022-10-10T13:35:22.154Z,100926.25
2022-10-10T13:37:57.455Z,100931.91
2022-10-10T13:40:26.955Z,100928.19
2022-10-10T13:42:55.725Z,100934.47
2022-10-10T13:45:30.061Z,100926.03
2022-10-10T13:48:01.576Z,100936.25
2022-10-10T13:50:42.598Z,100943.97
2022-10-10T13:53:29.382Z,100940.41
2022-10-10T13:56:00.175Z,100948.66
2022-10-10T13:58:41.470Z,100949.31
2022-10-10T14:01:58.605Z,100946.56
2022-10-10T14:04:40.688Z,100959.13
2022-10-10T14:07:21.044Z,100963.84
2022-10-10T14:09:57.109Z,100959.03
2022-10-10T14:12:36.248Z,100957.94
2022-10-10T14:15:05.278Z,100964.28
2022-10-10T14:17:36.113Z,100960.66
2022-10-10T14:20:09.798Z,100965.72
2022-10-10T14:22:37.666Z,100963.88
2022-10-10T14:25:06.199Z,100967.62
2022-10-10T14:27:37.071Z,100969.50
2022-10-10T14:30:06.872Z,100971.84
2022-10-10T14:32:34.812Z,100976.56
2022-10-10T14:35:02.736Z,100983.72
2022-10-10T14:37:32.327Z,100980.13
2022-10-10T14:40:00.341Z,100980.44
2022-10-10T14:42:28.334Z,100979.69
2022-10-10T14:44:56.581Z,100982.16
2022-10-10T14:47:25.536Z,100990.47
2022-10-10T14:49:57.581Z,100994.62
2022-10-10T14:52:25.993Z,100993.13
2022-10-10T14:54:54.110Z,100997.19
2022-10-10T14:57:23.377Z,101004.19
2022-10-10T14:59:51.738Z,100996.91
2022-10-10T15:02:23.203Z,101009.56
2022-10-10T15:04:51.917Z,101009.00
2022-10-10T15:07:20.461Z,101010.47
2022-10-10T15:12:41.917Z,101022.19
2022-10-10T15:15:11.562Z,101022.63
2022-10-10T15:17:39.954Z,101017.63
2022-10-10T15:20:09.976Z,101020.63
2022-10-10T15:22:37.717Z,101027.31
2022-10-10T15:25:07.389Z,101020.22
2022-10-10T15:27:36.425Z,101022.69
2022-10-10T15:30:06.070Z,101025.91
2022-10-10T15:32:37.439Z,101032.16
2022-10-10T15:35:05.611Z,101040.63
2022-10-10T15:37:33.559Z,101038.53
2022-10-10T15:40:01.785Z,101036.28
2022-10-10T15:42:30.743Z,101027.06
2022-10-10T15:44:58.636Z,101030.44
2022-10-10T15:47:29.899Z,101036.78
2022-10-10T15:49:57.909Z,101045.22
2022-10-10T15:52:26.736Z,101044.81
2022-10-10T15:54:54.805Z,101041.81
2022-10-10T15:57:23.347Z,101044.44
2022-10-10T15:59:51.412Z,101047.13
2022-10-10T16:02:19.491Z,101035.25
2022-10-10T16:04:47.891Z,101045.34
2022-10-10T16:07:34.666Z,101029.13
2022-10-10T16:10:04.844Z,101040.84
2022-10-10T16:12:32.641Z,101044.44
2022-10-10T16:15:04.677Z,101048.19
2022-10-10T16:17:35.289Z,101048.56
2022-10-10T16:20:03.369Z,101046.19
2022-10-10T16:22:31.409Z,101052.12
2022-10-10T16:30:33.136Z,101056.97
2022-10-10T16:33:00.841Z,101056.59
2022-10-10T16:35:28.917Z,101052.97
2022-10-10T16:38:00.538Z,101060.41
2022-10-10T16:40:28.433Z,101057.34
2022-10-10T16:42:56.336Z,101048.31
2022-10-10T16:45:24.612Z,101040.03
2022-10-10T16:47:52.389Z,101053.00
2022-10-10T16:50:20.085Z,101053.34
2022-10-10T16:52:48.483Z,101057.34
2022-10-10T16:55:16.517Z,101051.44
2022-10-10T16:57:44.421Z,101066.97
2022-10-10T17:00:15.541Z,101058.97
2022-10-10T17:02:43.461Z,101068.63
2022-10-10T17:05:11.424Z,101062.97
2022-10-10T17:07:39.719Z,101071.09
2022-10-10T17:10:08.007Z,101068.47
2022-10-10T17:12:36.144Z,101072.22
2022-10-10T17:15:05.453Z,101065.97
2022-10-10T17:17:35.498Z,101074.44
2022-10-10T17:20:07.580Z,101063.25
2022-10-10T17:22:36.881Z,101075.94
2022-10-10T17:25:05.134Z,101084.37
2022-10-10T17:27:35.373Z,101091.53
2022-10-10T17:30:04.365Z,101086.12
2022-10-10T17:32:32.638Z,101087.69
2022-10-10T17:35:00.448Z,101091.09
2022-10-10T17:37:28.819Z,101096.44
2022-10-10T17:39:59.620Z,101096.97
2022-10-10T17:42:27.557Z,101088.28
2022-10-10T17:44:59.546Z,101095.97
2022-10-10T17:47:28.189Z,101096.56
2022-10-10T17:49:56.414Z,101091.47
2022-10-10T17:52:25.536Z,101084.63
2022-10-10T17:54:56.278Z,101093.22
2022-10-10T17:57:24.997Z,101089.12
2022-10-10T17:59:52.903Z,101087.63
2022-10-10T18:02:20.975Z,101081.66
2022-10-10T18:04:52.040Z,101077.66
2022-10-10T18:07:20.015Z,101086.69
2022-10-10T18:09:51.928Z,101089.59
2022-10-10T18:12:20.313Z,101092.25
2022-10-10T18:14:48.223Z,101068.25
2022-10-10T18:17:19.126Z,101085.47
2022-10-10T18:19:47.754Z,101084.41
2022-10-10T18:22:16.024Z,101086.31
2022-10-10T18:24:44.196Z,101086.75
2022-10-10T18:27:15.702Z,101071.13
2022-10-10T18:29:43.645Z,101097.69
2022-10-10T18:32:11.569Z,101058.66
2022-10-10T18:34:40.249Z,101087.09
2022-10-10T18:37:08.153Z,101080.69
2022-10-10T18:39:37.659Z,101091.31
2022-10-10T18:42:06.109Z,101082.81
2022-10-10T18:44:34.086Z,101086.34
2022-10-10T18:47:02.203Z,101079.94
2022-10-10T18:49:30.454Z,101086.34
2022-10-10T18:51:58.359Z,101087.59
2022-10-10T18:54:28.127Z,101089.41
2022-10-10T18:56:56.529Z,101082.19
2022-10-10T18:59:24.395Z,101081.44
2022-10-10T19:01:52.820Z,101084.97
2022-10-10T19:04:21.906Z,101079.78
2022-10-10T19:06:55.983Z,101087.28
2022-10-10T19:09:29.672Z,101078.56
2022-10-10T19:11:57.550Z,101080.47
2022-10-10T19:14:25.577Z,101084.63
2022-10-10T19:16:57.088Z,101083.78
2022-10-10T19:19:24.947Z,101087.28
2022-10-10T19:21:53.201Z,101086.81
2022-10-10T19:24:22.673Z,101076.59
2022-10-10T19:26:53.634Z,101087.47
2022-10-10T19:29:22.451Z,101081.13
2022-10-10T19:31:51.140Z,101085.31
2022-10-10T19:34:22.891Z,101085.53
2022-10-10T19:36:51.150Z,101081.00
2022-10-10T19:39:22.229Z,101082.13
2022-10-10T19:41:50.047Z,101085.97
2022-10-10T19:44:18.409Z,101078.91
2022-10-10T19:46:46.319Z,101083.06
2022-10-10T19:49:14.217Z,101078.44
2022-10-10T19:51:42.324Z,101072.75
2022-10-10T19:54:10.398Z,101071.50
2022-10-10T19:56:38.370Z,101073.91
2022-10-10T19:59:06.734Z,101068.91
2022-10-10T20:01:37.734Z,101056.50
2022-10-10T20:04:06.135Z,101076.00
2022-10-10T20:06:34.283Z,101072.56
2022-10-10T20:09:02.953Z,101075.31
2022-10-10T20:11:31.961Z,101072.84
2022-10-10T20:13:59.822Z,101077.41
2022-10-10T20:16:30.845Z,101080.41
2022-10-10T20:18:59.760Z,101082.81
2022-10-10T20:21:32.722Z,101076.88
2022-10-10T20:24:06.213Z,101075.75
2022-10-10T20:26:35.327Z,101073.97
2022-10-10T20:29:04.263Z,101075.59
2022-10-10T20:31:35.304Z,101079.81
2022-10-10T20:34:05.026Z,101069.97
2022-10-10T20:36:34.212Z,101069.41
2022-10-10T20:39:05.291Z,101071.09
2022-10-10T20:41:35.724Z,101075.25
2022-10-10T20:44:06.045Z,101076.59
2022-10-10T20:46:37.513Z,101077.72
2022-10-10T20:49:07.633Z,101078.50
2022-10-10T20:51:39.021Z,101079.69
2022-10-10T20:54:07.905Z,101080.59
2022-10-10T20:56:36.629Z,101076.63
2022-10-10T20:59:04.684Z,101074.91
2022-10-10T21:01:32.646Z,101065.06
2022-10-10T21:04:01.447Z,101077.19
2022-10-10T21:06:32.888Z,101072.03
2022-10-10T21:09:03.232Z,101073.78
2022-10-10T21:11:31.101Z,101069.59
2022-10-10T21:14:00.298Z,101063.59
2022-10-10T21:16:31.787Z,101062.41
2022-10-10T21:19:04.412Z,101064.69
2022-10-10T21:21:37.028Z,101058.34
2022-10-10T21:24:08.132Z,101072.69
2022-10-10T21:26:36.563Z,101056.94
2022-10-10T21:29:04.713Z,101051.13
2022-10-10T21:31:35.729Z,101047.25
2022-10-10T21:34:06.252Z,101055.59
2022-10-10T21:36:35.080Z,101048.88
2022-10-10T21:39:06.891Z,101056.91
2022-10-10T21:41:38.197Z,101060.97
2022-10-10T21:44:06.700Z,101052.22
2022-10-10T21:46:37.066Z,101054.03
2022-10-10T21:49:08.332Z,101052.94
2022-10-10T21:51:45.833Z,101054.56
2022-10-10T21:54:14.260Z,101054.50
2022-10-10T21:56:42.729Z,101047.53
2022-10-10T21:59:11.752Z,101056.25
2022-10-10T22:01:39.624Z,101059.91
2022-10-10T22:04:07.898Z,101057.06
2022-10-10T22:06:35.782Z,101049.09
2022-10-10T22:09:05.909Z,101052.06
2022-10-10T22:11:34.967Z,101051.31
2022-10-10T22:14:03.521Z,101052.16
2022-10-10T22:16:32.679Z,101049.56
2022-10-10T22:19:01.178Z,101047.41
2022-10-10T22:21:35.158Z,101052.12
2022-10-10T22:24:06.298Z,101050.47
2022-10-10T22:26:35.504Z,101052.09
2022-10-10T22:29:05.117Z,101049.94
2022-10-10T22:31:35.807Z,101057.97
2022-10-10T22:34:05.940Z,101055.53
2022-10-10T22:36:36.680Z,101046.38
2022-10-10T22:39:05.435Z,101042.47
2022-10-10T22:41:36.026Z,101052.12
2022-10-10T22:44:05.058Z,101041.53
2022-10-10T22:46:32.747Z,101047.56
2022-10-10T22:49:00.502Z,101044.00
2022-10-10T22:51:30.098Z,101040.44
2022-10-10T22:53:57.985Z,101036.59
2022-10-10T22:56:26.028Z,101031.13
2022-10-10T22:58:54.340Z,101043.97
2022-10-10T23:01:25.469Z,101035.19
2022-10-10T23:04:00.561Z,101032.12
2022-10-10T23:06:29.203Z,101038.25
2022-10-10T23:09:00.067Z,101038.41
2022-10-10T23:11:28.351Z,101032.31
2022-10-10T23:13:56.151Z,101044.59
2022-10-10T23:16:27.183Z,101038.66
2022-10-10T23:18:55.478Z,101027.75
2022-10-10T23:21:23.979Z,101043.19
2022-10-10T23:23:51.712Z,101038.13
2022-10-10T23:26:19.933Z,101038.13
2022-10-10T23:28:50.784Z,101038.16
2022-10-10T23:31:19.037Z,101036.56
2022-10-10T23:33:46.899Z,101027.94
2022-10-10T23:36:15.898Z,101036.53
2022-10-10T23:38:46.890Z,101029.75
2022-10-10T23:41:15.104Z,101033.22
2022-10-10T23:43:43.187Z,101038.41
2022-10-10T23:46:12.390Z,101034.72
2022-10-10T23:48:40.498Z,101027.22
2022-10-10T23:51:11.873Z,101027.78
2022-10-10T23:53:40.052Z,101022.09
2022-10-10T23:56:08.483Z,101034.47
2022-10-10T23:58:36.878Z,101026.69
